createdAt,value
2023-04-21T00:01:14.749Z,94.00
2023-04-21T00:03:44.057Z,94.00
2023-04-21T00:06:13.889Z,94.00
2023-04-21T00:08:42.184Z,94.00
2023-04-21T00:11:11.092Z,94.00
2023-04-21T00:13:39.377Z,94.00
2023-04-21T00:16:08.606Z,94.00
2023-04-21T00:18:36.994Z,94.00
2023-04-21T00:21:05.545Z,94.00
2023-04-21T00:23:35.141Z,94.00
2023-04-21T00:26:03.362Z,94.10
2023-04-21T00:28:31.629Z,94.10
2023-04-21T00:31:00.367Z,94.00
2023-04-21T00:33:28.708Z,94.10
2023-04-21T00:35:59.153Z,94.40
2023-04-21T00:38:29.048Z,94.00
2023-04-21T00:40:58.680Z,94.00
2023-04-21T00:43:27.060Z,94.00
2023-04-21T00:45:56.163Z,94.40
2023-04-21T00:48:24.397Z,94.00
2023-04-21T00:50:52.811Z,94.00
2023-04-21T00:53:21.729Z,94.00
2023-04-21T00:55:51.642Z,94.00
2023-04-21T00:58:21.272Z,94.00
2023-04-21T01:00:49.799Z,94.00
2023-04-21T01:03:18.303Z,94.00
2023-04-21T01:05:46.759Z,94.00
2023-04-21T01:08:16.432Z,94.00
2023-04-21T01:10:44.594Z,94.00
2023-04-21T01:13:14.088Z,94.00
2023-04-21T01:15:43.766Z,94.00
2023-04-21T01:18:12.980Z,94.00
2023-04-21T01:20:41.758Z,94.00
2023-04-21T01:23:11.421Z,94.00
2023-04-21T01:25:39.597Z,94.00
2023-04-21T01:28:07.862Z,94.00
2023-04-21T01:30:36.137Z,94.00
2023-04-21T01:33:04.540Z,94.00
2023-04-21T01:35:32.908Z,94.00
2023-04-21T01:38:01.405Z,94.40
2023-04-21T01:40:31.237Z,94.00
2023-04-21T01:42:59.669Z,94.00
2023-04-21T01:45:28.000Z,94.00
2023-04-21T01:47:56.468Z,94.00
2023-04-21T01:50:24.726Z,94.00
2023-04-21T01:52:52.967Z,94.00
2023-04-21T01:55:21.727Z,94.00
2023-04-21T01:57:51.506Z,94.00
2023-04-21T02:00:20.336Z,94.00
2023-04-21T02:02:49.471Z,94.00
2023-04-21T02:05:18.205Z,94.00
2023-04-21T02:07:46.472Z,94.00
2023-04-21T02:10:15.666Z,94.00
2023-04-21T02:12:45.713Z,94.00
2023-04-21T02:15:15.318Z,94.00
2023-04-21T02:17:44.865Z,94.00
2023-04-21T02:20:13.542Z,93.90
2023-04-21T02:22:41.807Z,93.90
2023-04-21T02:25:10.628Z,93.90
2023-04-21T02:27:40.408Z,93.90
2023-04-21T02:30:09.959Z,93.90
2023-04-21T02:32:39.630Z,93.90
2023-04-21T02:35:08.412Z,93.90
2023-04-21T02:37:36.810Z,93.90
2023-04-21T02:40:06.603Z,93.90
2023-04-21T02:42:35.083Z,93.90
2023-04-21T02:45:03.386Z,93.90
2023-04-21T02:47:31.631Z,93.80
2023-04-21T02:50:01.297Z,93.90
2023-04-21T02:52:29.566Z,93.90
2023-04-21T02:54:57.823Z,93.90
2023-04-21T02:57:27.032Z,93.90
2023-04-21T02:59:55.313Z,93.80
2023-04-21T03:02:23.628Z,93.90
2023-04-21T03:04:53.166Z,93.90
2023-04-21T03:07:22.856Z,93.80
2023-04-21T03:09:51.135Z,93.80
2023-04-21T03:12:19.438Z,94.20
2023-04-21T03:14:47.939Z,93.90
2023-04-21T03:17:16.217Z,93.90
2023-04-21T03:19:44.512Z,94.30
2023-04-21T03:22:13.289Z,93.90
2023-04-21T03:24:42.922Z,93.90
2023-04-21T03:27:11.314Z,93.90
2023-04-21T03:29:39.816Z,93.80
2023-04-21T03:32:08.121Z,93.90
2023-04-21T03:34:36.451Z,93.80
2023-04-21T03:37:06.577Z,93.90
2023-04-21T03:39:34.819Z,93.80
2023-04-21T03:42:05.855Z,93.90
2023-04-21T03:44:34.109Z,93.80
2023-04-21T03:47:04.590Z,93.80
2023-04-21T03:49:35.225Z,93.90
2023-04-21T03:52:03.597Z,93.90
2023-04-21T03:54:31.847Z,93.80
2023-04-21T03:57:00.151Z,93.80
2023-04-21T03:59:29.732Z,93.80
2023-04-21T04:01:58.014Z,93.80
2023-04-21T04:04:26.405Z,93.80
2023-04-21T04:06:54.891Z,93.80
2023-04-21T04:09:23.228Z,93.80
2023-04-21T04:11:51.576Z,93.80
2023-04-21T04:14:19.822Z,93.90
2023-04-21T04:16:49.420Z,93.80
2023-04-21T04:19:17.997Z,93.80
2023-04-21T04:21:48.890Z,93.80
2023-04-21T04:24:17.480Z,93.80
2023-04-21T04:26:45.726Z,93.80
2023-04-21T04:29:14.142Z,93.80
2023-04-21T04:31:42.578Z,93.80
2023-04-21T04:34:12.372Z,93.80
2023-04-21T04:36:40.641Z,93.80
2023-04-21T04:39:10.363Z,93.80
2023-04-21T04:41:38.634Z,93.80
2023-04-21T04:44:07.842Z,93.80
2023-04-21T04:46:36.323Z,93.80
2023-04-21T04:49:04.970Z,93.80
2023-04-21T04:51:34.684Z,93.80
2023-04-21T04:54:03.083Z,93.80
2023-04-21T04:56:31.656Z,93.70
2023-04-21T04:58:59.880Z,94.10
2023-04-21T05:01:30.923Z,93.80
2023-04-21T05:03:59.543Z,93.70
2023-04-21T05:06:28.514Z,93.80
2023-04-21T05:08:58.243Z,93.70
2023-04-21T05:11:26.960Z,93.70
2023-04-21T05:13:55.275Z,93.70
2023-04-21T05:16:23.659Z,93.70
2023-04-21T05:18:54.013Z,93.80
2023-04-21T05:21:27.653Z,93.80
2023-04-21T05:23:58.545Z,93.70
2023-04-21T05:26:27.777Z,93.70
2023-04-21T05:28:56.983Z,93.70
2023-04-21T05:31:25.883Z,93.70
2023-04-21T05:33:54.464Z,93.70
2023-04-21T05:36:24.937Z,93.70
2023-04-21T05:38:54.087Z,93.70
2023-04-21T05:41:24.037Z,93.70
2023-04-21T05:43:52.328Z,94.10
2023-04-21T05:46:20.726Z,93.70
2023-04-21T05:48:48.991Z,93.60
2023-04-21T05:51:17.935Z,93.60
2023-04-21T05:53:47.257Z,93.60
2023-04-21T05:56:15.472Z,93.60
2023-04-21T05:58:45.123Z,93.60
2023-04-21T06:01:13.556Z,93.50
2023-04-21T06:03:41.872Z,93.50
2023-04-21T06:06:11.590Z,93.50
2023-04-21T06:08:39.930Z,93.90
2023-04-21T06:11:08.465Z,93.50
2023-04-21T06:13:38.489Z,93.50
2023-04-21T06:16:09.239Z,93.50
2023-04-21T06:18:38.157Z,93.50
2023-04-21T06:21:06.974Z,93.90
2023-04-21T06:23:35.700Z,93.50
2023-04-21T06:26:06.964Z,93.50
2023-04-21T06:28:39.261Z,93.50
2023-04-21T06:31:09.886Z,93.50
2023-04-21T06:33:38.436Z,93.50
2023-04-21T06:36:07.457Z,93.50
2023-04-21T06:38:35.807Z,93.50
2023-04-21T06:41:04.706Z,93.50
2023-04-21T06:43:33.095Z,93.50
2023-04-21T06:46:01.748Z,93.50
2023-04-21T06:48:31.776Z,93.50
2023-04-21T06:51:00.679Z,93.40
2023-04-21T06:53:29.068Z,93.50
2023-04-21T06:55:57.318Z,93.40
2023-04-21T06:58:25.682Z,93.80
2023-04-21T07:00:54.035Z,93.40
2023-04-21T07:03:22.537Z,93.40
2023-04-21T07:05:52.398Z,93.40
2023-04-21T07:08:21.102Z,93.30
2023-04-21T07:10:49.682Z,93.30
2023-04-21T07:13:18.105Z,93.30
2023-04-21T07:15:46.667Z,93.30
2023-04-21T07:18:15.028Z,93.20
2023-04-21T07:20:43.408Z,93.20
2023-04-21T07:23:13.163Z,93.30
2023-04-21T07:25:41.497Z,93.20
2023-04-21T07:28:11.059Z,93.20
2023-04-21T07:30:39.457Z,93.20
2023-04-21T07:33:08.152Z,93.10
2023-04-21T07:35:36.521Z,93.10
2023-04-21T07:38:05.197Z,93.10
2023-04-21T07:40:34.822Z,93.00
2023-04-21T07:43:03.444Z,93.00
2023-04-21T07:45:32.061Z,93.00
2023-04-21T07:48:00.411Z,92.90
2023-04-21T07:50:29.045Z,92.90
2023-04-21T07:52:57.839Z,92.90
2023-04-21T07:55:26.203Z,92.90
2023-04-21T07:57:56.061Z,92.90
2023-04-21T08:00:24.555Z,92.80
2023-04-21T08:02:53.090Z,92.80
2023-04-21T08:05:21.667Z,92.80
2023-04-21T08:07:49.991Z,92.70
2023-04-21T08:10:18.307Z,92.80
2023-04-21T08:12:46.764Z,92.70
2023-04-21T08:15:16.704Z,92.70
2023-04-21T08:17:45.155Z,92.70
2023-04-21T08:20:14.448Z,92.60
2023-04-21T08:22:42.995Z,92.70
2023-04-21T08:25:11.539Z,92.60
2023-04-21T08:27:43.844Z,92.70
2023-04-21T08:30:13.139Z,92.60
2023-04-21T08:32:43.033Z,92.60
2023-04-21T08:35:11.799Z,92.50
2023-04-21T08:37:40.576Z,92.40
2023-04-21T08:40:09.916Z,92.80
2023-04-21T08:42:39.762Z,92.40
2023-04-21T08:45:09.444Z,92.40
2023-04-21T08:47:41.298Z,92.40
2023-04-21T08:50:14.930Z,92.40
2023-04-21T08:52:43.248Z,92.40
2023-04-21T08:55:13.939Z,92.40
2023-04-21T08:57:42.292Z,92.40
2023-04-21T09:00:11.617Z,92.40
2023-04-21T09:03:00.232Z,92.40
2023-04-21T09:05:33.897Z,92.30
2023-04-21T09:08:12.838Z,92.30
2023-04-21T09:10:47.627Z,92.40
2023-04-21T09:13:16.853Z,92.30
2023-04-21T09:15:47.150Z,92.30
2023-04-21T09:18:17.330Z,92.30
2023-04-21T09:20:48.953Z,92.30
2023-04-21T09:23:17.673Z,92.30
2023-04-21T09:25:46.800Z,92.30
2023-04-21T09:28:16.451Z,92.30
2023-04-21T09:30:45.153Z,92.30
2023-04-21T09:33:28.964Z,92.30
2023-04-21T09:36:04.345Z,92.30
2023-04-21T09:38:33.751Z,92.30
2023-04-21T09:41:02.576Z,92.30
2023-04-21T09:43:30.895Z,92.30
2023-04-21T09:46:01.532Z,92.60
2023-04-21T09:48:33.719Z,92.30
2023-04-21T09:51:25.332Z,92.60
2023-04-21T09:53:57.737Z,92.30
2023-04-21T09:56:27.016Z,92.30
2023-04-21T09:58:58.744Z,92.20
2023-04-21T10:01:28.644Z,92.20
2023-04-21T10:03:59.480Z,92.20
2023-04-21T10:06:29.393Z,92.20
2023-04-21T10:08:59.253Z,92.20
2023-04-21T10:11:27.624Z,92.20
2023-04-21T10:13:56.052Z,92.20
2023-04-21T10:16:24.521Z,92.20
2023-04-21T10:18:53.862Z,92.20
2023-04-21T10:21:24.311Z,92.20
2023-04-21T10:23:54.595Z,92.10
2023-04-21T10:26:24.434Z,92.20
2023-04-21T10:28:57.990Z,92.20
2023-04-21T10:31:35.011Z,92.20
2023-04-21T10:34:23.477Z,92.20
2023-04-21T10:37:11.437Z,92.20
2023-04-21T10:39:58.405Z,92.10
2023-04-21T10:42:29.492Z,92.20
2023-04-21T10:45:16.442Z,92.20
2023-04-21T10:47:49.214Z,92.20
2023-04-21T10:50:23.476Z,92.10
2023-04-21T10:52:57.872Z,92.20
2023-04-21T10:55:31.258Z,92.20
2023-04-21T10:58:03.524Z,92.20
2023-04-21T11:00:32.122Z,92.20
2023-04-21T11:03:03.087Z,92.10
2023-04-21T11:05:36.072Z,92.20
2023-04-21T11:08:09.992Z,92.20
2023-04-21T11:10:48.499Z,92.20
2023-04-21T11:13:16.935Z,92.20
2023-04-21T11:15:58.602Z,92.20
2023-04-21T11:18:42.042Z,92.20
2023-04-21T11:21:11.848Z,92.20
2023-04-21T11:23:49.271Z,92.20
2023-04-21T11:26:21.097Z,92.20
2023-04-21T11:28:50.871Z,92.20
2023-04-21T11:31:19.432Z,92.20
2023-04-21T11:33:47.890Z,92.60
2023-04-21T11:36:16.266Z,92.20
2023-04-21T11:38:44.882Z,92.30
2023-04-21T11:41:13.199Z,92.30
2023-04-21T11:43:47.412Z,92.20
2023-04-21T11:46:19.037Z,92.30
2023-04-21T11:48:47.380Z,92.30
2023-04-21T11:51:22.049Z,92.30
2023-04-21T11:53:50.813Z,92.30
2023-04-21T11:56:21.690Z,92.30
2023-04-21T11:58:53.176Z,92.40
2023-04-21T12:01:22.300Z,92.30
2023-04-21T12:03:55.104Z,92.30
2023-04-21T12:06:24.966Z,92.30
2023-04-21T12:08:58.676Z,92.50
2023-04-21T12:11:28.898Z,92.50
2023-04-21T12:14:00.044Z,92.80
2023-04-21T12:16:29.866Z,92.60
2023-04-21T12:18:58.455Z,92.50
2023-04-21T12:21:29.321Z,92.60
2023-04-21T12:23:58.553Z,92.90
2023-04-21T12:26:27.016Z,92.60
2023-04-21T12:29:00.592Z,92.60
2023-04-21T12:31:30.436Z,92.60
2023-04-21T12:33:59.170Z,92.70
2023-04-21T12:36:27.916Z,92.60
2023-04-21T12:38:56.160Z,92.70
2023-04-21T12:41:24.429Z,92.70
2023-04-21T12:43:52.775Z,92.70
2023-04-21T12:46:21.399Z,92.80
2023-04-21T12:48:52.444Z,92.70
2023-04-21T12:51:20.954Z,92.70
2023-04-21T12:53:50.256Z,92.70
2023-04-21T12:56:19.034Z,92.70
2023-04-21T12:58:48.258Z,92.70
2023-04-21T13:01:16.734Z,92.70
2023-04-21T13:03:45.182Z,92.70
2023-04-21T13:06:14.946Z,92.70
2023-04-21T13:08:43.264Z,92.70
2023-04-21T13:11:11.742Z,92.80
2023-04-21T13:13:40.734Z,92.80
2023-04-21T13:16:09.185Z,92.80
2023-04-21T13:18:39.004Z,92.80
2023-04-21T13:21:07.448Z,92.80
2023-04-21T13:23:37.280Z,92.80
2023-04-21T13:26:06.308Z,92.80
2023-04-21T13:28:34.853Z,92.90
2023-04-21T13:31:03.301Z,92.90
2023-04-21T13:33:35.021Z,92.90
2023-04-21T13:36:03.748Z,92.80
2023-04-21T13:38:32.942Z,92.90
2023-04-21T13:41:03.277Z,92.90
2023-04-21T13:43:31.599Z,92.80
2023-04-21T13:45:59.920Z,92.90
2023-04-21T13:48:29.831Z,92.90
2023-04-21T13:50:58.653Z,92.90
2023-04-21T13:53:27.015Z,92.90
2023-04-21T13:55:56.942Z,92.90
2023-04-21T13:58:26.775Z,92.90
2023-04-21T14:00:55.212Z,92.90
2023-04-21T14:03:23.646Z,92.90
2023-04-21T14:05:52.261Z,92.90
2023-04-21T14:08:20.732Z,92.90
2023-04-21T14:10:49.109Z,92.90
2023-04-21T14:13:31.158Z,92.90
2023-04-21T14:16:04.181Z,92.90
2023-04-21T14:18:33.937Z,92.90
2023-04-21T14:21:02.281Z,92.90
2023-04-21T14:23:30.662Z,93.30
2023-04-21T14:25:59.155Z,92.90
2023-04-21T14:28:27.815Z,92.90
2023-04-21T14:30:56.075Z,93.30
2023-04-21T14:33:25.807Z,92.90
2023-04-21T14:35:54.063Z,92.80
2023-04-21T14:38:22.320Z,92.80
2023-04-21T14:40:51.334Z,92.90
2023-04-21T14:43:19.624Z,92.90
2023-04-21T14:45:48.264Z,92.80
2023-04-21T14:48:16.686Z,92.90
2023-04-21T14:50:46.428Z,92.80
2023-04-21T14:53:14.748Z,92.80
2023-04-21T14:55:43.147Z,92.90
2023-04-21T14:58:11.508Z,92.80
2023-04-21T15:00:39.984Z,92.90
2023-04-21T15:03:08.558Z,92.90
2023-04-21T15:05:37.167Z,92.90
2023-04-21T15:08:07.091Z,92.90
2023-04-21T15:10:35.470Z,92.90
2023-04-21T15:13:03.939Z,92.90
2023-04-21T15:15:32.262Z,92.80
2023-04-21T15:18:00.635Z,92.80
2023-04-21T15:20:43.063Z,92.90
2023-04-21T15:23:14.283Z,92.90
2023-04-21T15:25:43.391Z,92.90
2023-04-21T15:28:13.015Z,92.90
2023-04-21T15:30:41.420Z,92.90
2023-04-21T15:33:11.617Z,92.90
2023-04-21T15:35:40.286Z,93.20
2023-04-21T15:38:08.622Z,92.80
2023-04-21T15:40:49.565Z,92.80
2023-04-21T15:43:36.446Z,92.90
2023-04-21T15:46:12.937Z,92.80
2023-04-21T15:48:41.808Z,92.90
2023-04-21T15:51:10.835Z,92.90
2023-04-21T15:53:43.908Z,92.90
2023-04-21T15:56:15.923Z,92.90
2023-04-21T15:58:44.470Z,92.80
2023-04-21T16:01:13.080Z,92.80
2023-04-21T16:03:41.638Z,92.90
2023-04-21T16:06:10.502Z,92.80
2023-04-21T16:08:39.197Z,92.80
2023-04-21T16:11:07.683Z,92.90
2023-04-21T16:13:37.932Z,92.80
2023-04-21T16:16:06.539Z,92.80
2023-04-21T16:18:36.107Z,92.80
2023-04-21T16:21:04.701Z,92.80
2023-04-21T16:23:33.180Z,92.80
2023-04-21T16:26:02.236Z,92.80
2023-04-21T16:28:30.654Z,92.80
2023-04-21T16:31:00.493Z,93.20
2023-04-21T16:33:28.949Z,92.80
2023-04-21T16:35:57.778Z,92.80
2023-04-21T16:38:26.388Z,92.80
2023-04-21T16:40:54.754Z,92.80
2023-04-21T16:43:23.007Z,92.90
2023-04-21T16:45:51.406Z,92.90
2023-04-21T16:48:21.221Z,92.90
2023-04-21T16:50:49.786Z,92.90
2023-04-21T16:53:18.156Z,92.90
2023-04-21T16:55:46.614Z,92.90
2023-04-21T16:58:15.040Z,92.90
2023-04-21T17:00:43.517Z,92.90
2023-04-21T17:03:11.963Z,92.90
2023-04-21T17:05:42.217Z,92.90
2023-04-21T17:08:10.724Z,92.90
2023-04-21T17:10:38.965Z,92.90
2023-04-21T17:13:07.542Z,92.90
2023-04-21T17:15:36.132Z,92.90
2023-04-21T17:18:04.559Z,92.90
2023-04-21T17:20:32.833Z,92.90
2023-04-21T17:23:02.584Z,92.90
2023-04-21T17:25:30.886Z,92.90
2023-04-21T17:27:59.284Z,92.90
2023-04-21T17:30:27.727Z,92.90
2023-04-21T17:33:08.324Z,92.90
2023-04-21T17:35:55.670Z,92.90
2023-04-21T17:38:32.208Z,92.90
2023-04-21T17:41:01.955Z,93.00
2023-04-21T17:43:30.345Z,92.90
2023-04-21T17:45:58.721Z,93.00
2023-04-21T17:48:27.278Z,92.90
2023-04-21T17:50:55.565Z,92.90
2023-04-21T17:53:23.902Z,93.00
2023-04-21T17:55:53.604Z,92.90
2023-04-21T17:58:21.879Z,92.90
2023-04-21T18:00:50.213Z,93.00
2023-04-21T18:03:18.568Z,92.90
2023-04-21T18:05:47.147Z,92.90
2023-04-21T18:08:15.574Z,92.90
2023-04-21T18:10:43.791Z,93.00
2023-04-21T18:13:13.567Z,93.00
2023-04-21T18:15:42.114Z,93.00
2023-04-21T18:18:10.755Z,93.00
2023-04-21T18:20:39.212Z,93.00
2023-04-21T18:23:07.539Z,93.00
2023-04-21T18:25:42.437Z,93.00
2023-04-21T18:28:13.031Z,93.00
2023-04-21T18:30:43.381Z,93.00
2023-04-21T18:33:12.116Z,93.00
2023-04-21T18:35:41.163Z,92.90
2023-04-21T18:38:11.533Z,92.90
2023-04-21T18:40:40.738Z,93.00
2023-04-21T18:43:10.622Z,93.00
2023-04-21T18:45:39.551Z,93.00
2023-04-21T18:48:09.247Z,93.00
2023-04-21T18:50:39.851Z,93.00
2023-04-21T18:53:09.603Z,93.00
2023-04-21T18:55:38.431Z,93.00
2023-04-21T18:58:07.013Z,93.00
2023-04-21T19:00:37.514Z,93.00
2023-04-21T19:03:06.691Z,93.00
2023-04-21T19:05:36.960Z,93.00
2023-04-21T19:08:05.677Z,93.00
2023-04-21T19:10:35.725Z,93.00
2023-04-21T19:13:04.263Z,93.00
2023-04-21T19:15:32.717Z,93.00
2023-04-21T19:18:01.054Z,93.00
2023-04-21T19:20:30.271Z,93.00
2023-04-21T19:22:59.870Z,93.00
2023-04-21T19:25:28.170Z,93.00
2023-04-21T19:27:56.437Z,93.10
2023-04-21T19:30:24.864Z,93.00
2023-04-21T19:32:56.197Z,93.10
2023-04-21T19:35:24.576Z,93.10
2023-04-21T19:37:52.842Z,93.10
2023-04-21T19:40:22.750Z,93.00
2023-04-21T19:42:51.022Z,93.00
2023-04-21T19:45:19.236Z,93.00
2023-04-21T19:47:47.930Z,93.10
2023-04-21T19:50:16.256Z,93.10
2023-04-21T19:52:46.513Z,93.10
2023-04-21T19:55:14.791Z,93.10
2023-04-21T19:57:44.410Z,93.10
2023-04-21T20:00:15.644Z,93.10
2023-04-21T20:02:44.116Z,93.10
2023-04-21T20:05:15.377Z,93.10
2023-04-21T20:07:43.729Z,93.10
2023-04-21T20:10:13.722Z,93.10
2023-04-21T20:12:42.003Z,93.00
2023-04-21T20:15:13.342Z,93.10
2023-04-21T20:17:42.460Z,93.00
2023-04-21T20:20:11.619Z,93.10
2023-04-21T20:22:39.939Z,93.10
2023-04-21T20:25:10.633Z,93.40
2023-04-21T20:27:39.013Z,93.00
2023-04-21T20:30:08.699Z,93.10
2023-04-21T20:32:38.483Z,93.10
2023-04-21T20:35:08.070Z,93.00
2023-04-21T20:37:37.045Z,93.00
2023-04-21T20:40:08.269Z,93.00
2023-04-21T20:42:36.708Z,93.00
2023-04-21T20:45:06.364Z,93.00
2023-04-21T20:47:34.937Z,93.00
2023-04-21T20:50:05.438Z,93.00
2023-04-21T20:52:33.669Z,93.00
2023-04-21T20:55:02.019Z,93.00
2023-04-21T20:57:30.270Z,93.00
2023-04-21T20:59:58.528Z,93.00
2023-04-21T21:02:26.941Z,93.00
2023-04-21T21:04:55.428Z,93.00
2023-04-21T21:07:25.332Z,93.00
2023-04-21T21:09:53.692Z,93.40
2023-04-21T21:12:22.183Z,93.00
2023-04-21T21:14:50.494Z,93.00
2023-04-21T21:17:18.824Z,93.00
2023-04-21T21:19:47.051Z,93.00
2023-04-21T21:22:15.405Z,93.00
2023-04-21T21:24:44.997Z,93.00
2023-04-21T21:27:13.617Z,93.00
2023-04-21T21:29:41.876Z,93.40
2023-04-21T21:32:10.257Z,93.00
2023-04-21T21:34:38.647Z,93.00
2023-04-21T21:37:06.986Z,92.90
2023-04-21T21:39:35.754Z,93.00
2023-04-21T21:42:05.741Z,92.90
2023-04-21T21:44:33.990Z,93.00
2023-04-21T21:47:02.301Z,93.00
2023-04-21T21:49:30.501Z,92.90
2023-04-21T21:51:59.028Z,92.90
2023-04-21T21:54:27.276Z,92.90
2023-04-21T21:56:56.336Z,92.90
2023-04-21T21:59:26.171Z,92.90
2023-04-21T22:01:54.702Z,92.90
2023-04-21T22:04:23.186Z,93.00
2023-04-21T22:06:51.960Z,93.00
2023-04-21T22:09:20.948Z,93.00
2023-04-21T22:11:49.217Z,93.30
2023-04-21T22:14:23.451Z,92.90
2023-04-21T22:16:53.985Z,92.90
2023-04-21T22:19:22.630Z,92.90
2023-04-21T22:21:51.028Z,93.00
2023-04-21T22:24:19.557Z,93.00
2023-04-21T22:26:48.178Z,93.00
2023-04-21T22:29:16.538Z,93.00
2023-04-21T22:31:45.057Z,93.00
2023-04-21T22:34:16.792Z,92.90
2023-04-21T22:36:45.248Z,92.90
2023-04-21T22:39:13.708Z,92.90
2023-04-21T22:41:42.277Z,92.90
2023-04-21T22:44:10.630Z,92.90
2023-04-21T22:46:39.212Z,92.90
2023-04-21T22:49:07.619Z,92.90
2023-04-21T22:51:38.097Z,92.90
2023-04-21T22:54:06.837Z,92.90
2023-04-21T22:56:35.160Z,92.90
2023-04-21T22:59:03.545Z,92.90
2023-04-21T23:01:32.299Z,92.90
2023-04-21T23:04:00.930Z,92.90
2023-04-21T23:06:29.384Z,92.90
2023-04-21T23:08:59.071Z,92.90
2023-04-21T23:11:27.430Z,92.90
2023-04-21T23:13:55.707Z,92.90
2023-04-21T23:16:24.166Z,92.90
2023-04-21T23:18:52.444Z,92.90
2023-04-21T23:21:20.800Z,92.90
2023-04-21T23:23:49.154Z,92.90
2023-04-21T23:26:18.879Z,92.90
2023-04-21T23:28:47.211Z,93.00
2023-04-21T23:31:15.677Z,93.00
2023-04-21T23:33:44.471Z,93.00
2023-04-21T23:36:12.788Z,93.00
2023-04-21T23:38:41.244Z,92.90
2023-04-21T23:41:09.572Z,92.90
2023-04-21T23:43:39.155Z,92.90
2023-04-21T23:46:07.600Z,92.90
2023-04-21T23:48:36.031Z,92.90
2023-04-21T23:51:04.573Z,92.90
2023-04-21T23:53:32.856Z,92.90
2023-04-21T23:56:01.327Z,92.90
2023-04-21T23:58:29.565Z,93.00
